Time;durP1;ratioP1;P1;durP2;ratioP2;P2;SDS_P1;SDS_P2;PMS_P1;PMS_P2;Temp;Humidity;BMP_temperature;BMP_pressure;BME280_temperature;BME280_humidity;BME280_pressure;Samples;Min_cycle;Max_cycle;Signal;HPM_P1;HPM_P2
2022/05/06 00:01:24;;;;;;;;;;;10.60;99.90;;;;;;5075390;28;20019;-62
2022/05/06 00:03:50;;;;;;;;;;;10.60;99.90;;;;;;5075516;28;19928;-61
2022/05/06 00:06:16;;;;;;;;;;;10.50;99.90;;;;;;5075661;28;19921;-61
2022/05/06 00:08:42;;;;;;;;;;;10.50;99.90;;;;;;5057330;28;20397;-61
2022/05/06 00:11:07;;;;;;;;;;;10.50;99.90;;;;;;5075387;28;20021;-61
2022/05/06 00:13:33;;;;;;;;;;;10.30;99.90;;;;;;5075468;28;19921;-62
2022/05/06 00:15:58;;;;;;;;;;;10.40;99.90;;;;;;5074995;28;20272;-62
2022/05/06 00:18:24;;;;;;;;;;;10.50;99.90;;;;;;5074993;28;19920;-62
2022/05/06 00:20:49;;;;;;;;;;;10.50;99.90;;;;;;5075180;28;19959;-61
2022/05/06 00:23:15;;;;;;;;;;;10.40;99.90;;;;;;5074989;28;20444;-62
2022/05/06 00:25:40;;;;;;;;;;;10.30;99.90;;;;;;5075279;28;20355;-62
2022/05/06 00:28:06;;;;;;;;;;;10.40;99.90;;;;;;5075124;28;20358;-62
2022/05/06 00:30:32;;;;;;;;;;;10.30;99.90;;;;;;5074650;28;19964;-62
2022/05/06 00:32:58;;;;;;;;;;;10.30;99.90;;;;;;5075043;28;19964;-62
2022/05/06 00:35:24;;;;;;;;;;;10.20;99.90;;;;;;5075224;28;20382;-62
2022/05/06 00:37:49;;;;;;;;;;;10.20;99.90;;;;;;5074222;28;20264;-62
2022/05/06 00:40:15;;;;;;;;;;;10.10;99.90;;;;;;5075341;28;20007;-62
2022/05/06 00:42:41;;;;;;;;;;;10.10;99.90;;;;;;5075008;28;19959;-62
2022/05/06 00:45:07;;;;;;;;;;;9.90;99.90;;;;;;5074937;28;19921;-62
2022/05/06 00:47:34;;;;;;;;;;;9.90;99.90;;;;;;5074691;28;20286;-62
2022/05/06 00:50:00;;;;;;;;;;;9.90;99.90;;;;;;5074488;28;20441;-62
2022/05/06 00:52:26;;;;;;;;;;;9.90;99.90;;;;;;5074701;28;19966;-62
2022/05/06 00:54:52;;;;;;;;;;;9.80;99.90;;;;;;5074422;28;19924;-61
2022/05/06 00:57:17;;;;;;;;;;;9.80;99.90;;;;;;5074397;28;20379;-61
2022/05/06 01:02:27;;;;;;;;;;;9.80;99.90;;;;;;5074560;28;19920;-62
2022/05/06 01:04:53;;;;;;;;;;;9.80;99.90;;;;;;5074465;28;19974;-61
2022/05/06 01:07:19;;;;;;;;;;;9.80;99.90;;;;;;5074543;28;20351;-62
2022/05/06 01:09:45;;;;;;;;;;;9.80;99.90;;;;;;5074316;28;19943;-62
2022/05/06 01:12:11;;;;;;;;;;;9.70;99.90;;;;;;5074482;28;19920;-62
2022/05/06 01:14:36;;;;;;;;;;;9.80;99.90;;;;;;5073742;28;19943;-62
2022/05/06 01:17:02;;;;;;;;;;;9.80;99.90;;;;;;5074353;28;19921;-62
2022/05/06 01:19:28;;;;;;;;;;;9.60;99.90;;;;;;5074075;28;20371;-62
2022/05/06 01:21:54;;;;;;;;;;;9.50;99.90;;;;;;5074102;28;20038;-62
2022/05/06 01:24:21;;;;;;;;;;;9.40;99.90;;;;;;5074402;28;19934;-62
2022/05/06 01:26:49;;;;;;;;;;;9.40;99.90;;;;;;5074067;28;20414;-62
2022/05/06 01:29:15;;;;;;;;;;;9.40;99.90;;;;;;5074101;28;19924;-62
2022/05/06 01:31:41;;;;;;;;;;;9.30;99.90;;;;;;5073671;28;20441;-62
2022/05/06 01:34:09;;;;;;;;;;;9.20;99.90;;;;;;5073980;28;20004;-62
2022/05/06 01:36:35;;;;;;;;;;;9.10;99.90;;;;;;5056257;28;20533;-62
2022/05/06 01:39:01;;;;;;;;;;;9.10;99.90;;;;;;5073805;28;20043;-62
2022/05/06 01:41:27;;;;;;;;;;;9.00;99.90;;;;;;5073542;28;19921;-62
2022/05/06 01:43:59;;;;;;;;;;;8.90;99.90;;;;;;5073732;28;19921;-62
2022/05/06 01:46:25;;;;;;;;;;;9.00;99.90;;;;;;5073558;28;19921;-62
2022/05/06 01:48:51;;;;;;;;;;;9.10;99.90;;;;;;5073519;28;19966;-61
2022/05/06 01:51:19;;;;;;;;;;;9.10;99.90;;;;;;5073705;28;19994;-62
2022/05/06 01:53:45;;;;;;;;;;;9.10;99.90;;;;;;5073747;28;19978;-62
2022/05/06 01:56:11;;;;;;;;;;;9.00;99.90;;;;;;5073745;28;19928;-62
2022/05/06 01:58:36;;;;;;;;;;;9.10;99.90;;;;;;5073293;28;20006;-62
2022/05/06 02:01:02;;;;;;;;;;;9.10;99.90;;;;;;5073211;28;19920;-61
2022/05/06 02:06:12;;;;;;;;;;;9.00;99.90;;;;;;5073464;28;19924;-62
2022/05/06 02:08:38;;;;;;;;;;;9.00;99.90;;;;;;5072613;28;19991;-59
2022/05/06 02:11:05;;;;;;;;;;;8.90;99.90;;;;;;5072547;28;20026;-60
2022/05/06 02:13:32;;;;;;;;;;;8.90;99.90;;;;;;5072409;28;19927;-60
2022/05/06 02:15:58;;;;;;;;;;;8.90;99.90;;;;;;5072646;28;19924;-60
2022/05/06 02:18:24;;;;;;;;;;;8.80;99.90;;;;;;5072429;28;20424;-60
2022/05/06 02:20:49;;;;;;;;;;;8.80;99.90;;;;;;5072590;28;19924;-59
2022/05/06 02:23:15;;;;;;;;;;;8.90;99.90;;;;;;5072258;28;19973;-60
2022/05/06 02:25:41;;;;;;;;;;;8.90;99.90;;;;;;5054456;28;19924;-59
2022/05/06 02:28:08;;;;;;;;;;;8.90;99.90;;;;;;5072785;28;20055;-60
2022/05/06 02:33:23;;;;;;;;;;;9.00;99.90;;;;;;5072452;28;19931;-60
2022/05/06 02:35:49;;;;;;;;;;;8.90;99.90;;;;;;5071155;28;19924;-60
2022/05/06 02:38:14;;;;;;;;;;;8.80;99.90;;;;;;5072241;28;19927;-60
2022/05/06 02:40:40;;;;;;;;;;;8.90;99.90;;;;;;5072161;28;19930;-60
2022/05/06 02:43:06;;;;;;;;;;;8.90;99.90;;;;;;5072521;28;19947;-60
2022/05/06 02:45:32;;;;;;;;;;;9.00;99.90;;;;;;5072526;28;20117;-60
2022/05/06 02:47:57;;;;;;;;;;;8.90;99.90;;;;;;5054412;28;19946;-60
2022/05/06 02:50:24;;;;;;;;;;;8.90;99.90;;;;;;5072041;28;19925;-60
2022/05/06 02:52:49;;;;;;;;;;;8.90;99.90;;;;;;5072171;28;20059;-60
2022/05/06 02:55:15;;;;;;;;;;;9.00;99.90;;;;;;5072078;28;19995;-60
2022/05/06 02:57:40;;;;;;;;;;;9.10;99.90;;;;;;5072182;28;20334;-60
2022/05/06 03:00:06;;;;;;;;;;;9.00;99.90;;;;;;5072908;28;19981;-60
2022/05/06 03:02:32;;;;;;;;;;;9.00;99.90;;;;;;5076344;28;19960;-60
2022/05/06 03:04:57;;;;;;;;;;;8.90;99.90;;;;;;5076113;28;19920;-60
2022/05/06 03:07:24;;;;;;;;;;;9.00;99.90;;;;;;5076026;28;19956;-60
2022/05/06 03:09:52;;;;;;;;;;;9.00;99.90;;;;;;5075934;28;20007;-60
2022/05/06 03:12:18;;;;;;;;;;;9.10;99.90;;;;;;5076165;28;19920;-60
2022/05/06 03:14:44;;;;;;;;;;;9.00;99.90;;;;;;5075939;28;19944;-59
2022/05/06 03:17:09;;;;;;;;;;;9.00;99.90;;;;;;5075932;28;19920;-60
2022/05/06 03:19:35;;;;;;;;;;;8.90;99.90;;;;;;5075878;28;19921;-60
2022/05/06 03:22:00;;;;;;;;;;;8.90;99.90;;;;;;5075726;28;19927;-60
2022/05/06 03:24:26;;;;;;;;;;;8.90;99.90;;;;;;5075552;28;20426;-60
2022/05/06 03:26:52;;;;;;;;;;;9.00;99.90;;;;;;5075667;28;19921;-60
2022/05/06 03:29:17;;;;;;;;;;;9.00;99.90;;;;;;5075933;28;19924;-60
2022/05/06 03:31:43;;;;;;;;;;;9.00;99.90;;;;;;5075656;28;20415;-60
2022/05/06 03:34:09;;;;;;;;;;;9.00;99.90;;;;;;5075603;28;19927;-60
2022/05/06 03:36:34;;;;;;;;;;;9.10;99.90;;;;;;5075488;28;19943;-60
2022/05/06 03:39:00;;;;;;;;;;;9.10;99.90;;;;;;5075421;28;20313;-60
2022/05/06 03:41:26;;;;;;;;;;;9.20;99.90;;;;;;5075622;28;20056;-60
2022/05/06 03:43:51;;;;;;;;;;;9.30;99.90;;;;;;5075446;28;20023;-60
2022/05/06 03:46:17;;;;;;;;;;;9.30;99.90;;;;;;5075256;28;20058;-60
2022/05/06 03:48:43;;;;;;;;;;;9.30;99.90;;;;;;5075205;28;19988;-60
2022/05/06 03:51:20;;;;;;;;;;;9.30;99.90;;;;;;5075095;28;20421;-60
2022/05/06 03:53:49;;;;;;;;;;;9.40;99.90;;;;;;5075397;28;20019;-60
2022/05/06 03:56:15;;;;;;;;;;;9.50;99.90;;;;;;5075402;28;20015;-60
2022/05/06 03:58:41;;;;;;;;;;;9.60;99.90;;;;;;5075219;28;20716;-60
2022/05/06 04:01:09;;;;;;;;;;;9.50;99.90;;;;;;5075095;28;19924;-60
2022/05/06 04:03:35;;;;;;;;;;;9.50;99.90;;;;;;5075381;28;19928;-59
2022/05/06 04:06:01;;;;;;;;;;;9.60;99.90;;;;;;5074837;28;20023;-60
2022/05/06 04:08:27;;;;;;;;;;;9.50;99.90;;;;;;5075097;28;19920;-60
2022/05/06 04:10:52;;;;;;;;;;;9.60;99.90;;;;;;5074367;28;19925;-60
2022/05/06 04:13:18;;;;;;;;;;;9.60;99.90;;;;;;5074155;28;19921;-60
2022/05/06 04:15:45;;;;;;;;;;;9.60;99.90;;;;;;5074746;28;19927;-60
2022/05/06 04:18:11;;;;;;;;;;;9.50;99.90;;;;;;5074761;28;19970;-60
2022/05/06 04:23:29;;;;;;;;;;;9.60;99.90;;;;;;5074991;28;19924;-60
2022/05/06 04:26:01;;;;;;;;;;;9.60;99.90;;;;;;5074669;28;20028;-60
2022/05/06 04:28:28;;;;;;;;;;;9.60;99.90;;;;;;5074596;28;19924;-60
2022/05/06 04:30:53;;;;;;;;;;;9.70;99.90;;;;;;5074518;28;20396;-59
2022/05/06 04:33:19;;;;;;;;;;;9.70;99.90;;;;;;5074831;28;19925;-60
2022/05/06 04:35:45;;;;;;;;;;;9.50;99.90;;;;;;5074502;28;19931;-60
2022/05/06 04:38:11;;;;;;;;;;;9.60;99.90;;;;;;5074346;28;19924;-60
2022/05/06 04:40:37;;;;;;;;;;;9.60;99.90;;;;;;5074208;28;19927;-60
2022/05/06 04:43:06;;;;;;;;;;;9.70;99.90;;;;;;5074265;28;20306;-60
2022/05/06 04:45:31;;;;;;;;;;;9.70;99.90;;;;;;5074359;28;19973;-60
2022/05/06 04:47:57;;;;;;;;;;;9.80;99.90;;;;;;5074530;28;19924;-60
2022/05/06 04:50:22;;;;;;;;;;;9.70;99.90;;;;;;5074009;28;19980;-60
2022/05/06 04:52:49;;;;;;;;;;;9.80;99.90;;;;;;5074236;28;19931;-60
2022/05/06 04:55:15;;;;;;;;;;;9.80;99.90;;;;;;5073986;28;20275;-60
2022/05/06 04:57:40;;;;;;;;;;;9.90;99.90;;;;;;5073848;28;19978;-60
2022/05/06 05:00:06;;;;;;;;;;;9.90;99.90;;;;;;5073880;28;19924;-60
2022/05/06 05:02:32;;;;;;;;;;;9.90;99.90;;;;;;5074012;28;19920;-60
2022/05/06 05:04:58;;;;;;;;;;;10.00;99.90;;;;;;5072824;28;19920;-60
2022/05/06 05:07:24;;;;;;;;;;;9.90;99.90;;;;;;5073863;28;20007;-60
2022/05/06 05:09:50;;;;;;;;;;;9.90;99.90;;;;;;5073686;28;20118;-60
2022/05/06 05:12:15;;;;;;;;;;;10.00;99.90;;;;;;5073818;28;19928;-60
2022/05/06 05:14:44;;;;;;;;;;;10.10;99.90;;;;;;5054962;28;19927;-60
2022/05/06 05:17:10;;;;;;;;;;;10.00;99.90;;;;;;5073803;28;19924;-60
2022/05/06 05:19:36;;;;;;;;;;;10.00;99.90;;;;;;5073485;28;19974;-61
2022/05/06 05:22:01;;;;;;;;;;;10.00;99.90;;;;;;5073508;28;19956;-60
2022/05/06 05:24:27;;;;;;;;;;;10.10;99.90;;;;;;5073143;28;19978;-60
2022/05/06 05:26:54;;;;;;;;;;;10.10;99.90;;;;;;5073696;28;20712;-60
2022/05/06 05:29:19;;;;;;;;;;;10.10;99.90;;;;;;5073252;28;20090;-60
2022/05/06 05:31:45;;;;;;;;;;;10.10;99.90;;;;;;5073416;28;20019;-60
2022/05/06 05:34:11;;;;;;;;;;;10.20;99.90;;;;;;5073401;28;19931;-60
2022/05/06 05:36:36;;;;;;;;;;;10.30;99.90;;;;;;5073495;28;19952;-60
2022/05/06 05:39:02;;;;;;;;;;;10.20;99.90;;;;;;5054872;28;19920;-60
2022/05/06 05:41:27;;;;;;;;;;;10.20;99.90;;;;;;5072114;28;19928;-60
2022/05/06 05:49:21;;;;;;;;;;;10.30;99.90;;;;;;5073006;28;19973;-60
2022/05/06 05:51:47;;;;;;;;;;;10.30;99.90;;;;;;5072900;28;19924;-60
2022/05/06 05:54:15;;;;;;;;;;;10.40;99.90;;;;;;5072785;28;19927;-62
2022/05/06 05:56:41;;;;;;;;;;;10.30;99.90;;;;;;5073084;28;20287;-62
2022/05/06 05:59:06;;;;;;;;;;;10.40;99.90;;;;;;5073179;28;19920;-62
2022/05/06 06:01:32;;;;;;;;;;;10.40;99.90;;;;;;5073545;28;19931;-61
2022/05/06 06:03:58;;;;;;;;;;;10.40;99.90;;;;;;5073415;28;19920;-61
2022/05/06 06:06:23;;;;;;;;;;;10.40;99.90;;;;;;5073054;28;19920;-61
2022/05/06 06:08:49;;;;;;;;;;;10.40;99.90;;;;;;5073100;28;20041;-61
2022/05/06 06:11:14;;;;;;;;;;;10.30;99.90;;;;;;5073055;28;19924;-63
2022/05/06 06:13:40;;;;;;;;;;;10.40;99.90;;;;;;5073374;28;19938;-64
2022/05/06 06:16:05;;;;;;;;;;;10.50;99.90;;;;;;5073256;28;20315;-64
2022/05/06 06:18:31;;;;;;;;;;;10.40;99.90;;;;;;5073392;28;20337;-63
2022/05/06 06:20:56;;;;;;;;;;;10.50;99.90;;;;;;5073156;28;19943;-62
2022/05/06 06:23:23;;;;;;;;;;;10.50;99.90;;;;;;5073037;28;19920;-64
2022/05/06 06:25:48;;;;;;;;;;;10.60;99.90;;;;;;5073038;28;19924;-62
2022/05/06 06:28:14;;;;;;;;;;;10.70;99.90;;;;;;5073085;28;19970;-61
2022/05/06 06:30:40;;;;;;;;;;;10.90;99.90;;;;;;5072561;28;20318;-63
2022/05/06 06:33:09;;;;;;;;;;;10.90;99.90;;;;;;5073216;28;20328;-62
2022/05/06 06:35:34;;;;;;;;;;;11.00;99.90;;;;;;5072169;28;19920;-63
2022/05/06 06:38:00;;;;;;;;;;;11.00;99.90;;;;;;5072964;28;20428;-61
2022/05/06 06:40:26;;;;;;;;;;;11.10;99.90;;;;;;5072758;28;19971;-62
2022/05/06 06:42:52;;;;;;;;;;;11.10;99.90;;;;;;5055229;28;20278;-61
2022/05/06 06:45:17;;;;;;;;;;;11.10;99.90;;;;;;5073261;28;19931;-62
2022/05/06 06:47:43;;;;;;;;;;;11.20;99.90;;;;;;5072857;28;19931;-60
2022/05/06 06:50:09;;;;;;;;;;;11.30;99.90;;;;;;5072438;28;19928;-61
2022/05/06 06:52:35;;;;;;;;;;;11.40;99.90;;;;;;5072742;28;19921;-61
2022/05/06 06:55:00;;;;;;;;;;;11.40;99.90;;;;;;5072771;28;19920;-61
2022/05/06 06:57:28;;;;;;;;;;;11.50;99.90;;;;;;5072729;28;19927;-61
2022/05/06 06:59:55;;;;;;;;;;;11.60;99.90;;;;;;5073063;28;19926;-62
2022/05/06 07:02:20;;;;;;;;;;;11.70;99.90;;;;;;5072664;28;19924;-60
2022/05/06 07:04:45;;;;;;;;;;;11.80;99.90;;;;;;5071864;28;20003;-59
2022/05/06 07:12:39;;;;;;;;;;;11.90;99.90;;;;;;5071830;28;19921;-60
2022/05/06 07:15:05;;;;;;;;;;;12.00;99.90;;;;;;5071897;28;19920;-59
2022/05/06 07:17:30;;;;;;;;;;;11.90;99.90;;;;;;5071674;28;20374;-59
2022/05/06 07:19:56;;;;;;;;;;;12.00;99.90;;;;;;5072009;28;19924;-60
2022/05/06 07:22:21;;;;;;;;;;;12.10;99.90;;;;;;5071767;28;20007;-60
2022/05/06 07:24:47;;;;;;;;;;;12.10;99.90;;;;;;5071964;28;20035;-61
2022/05/06 07:27:13;;;;;;;;;;;12.30;99.90;;;;;;5071661;28;19920;-61
2022/05/06 07:29:38;;;;;;;;;;;12.40;99.90;;;;;;5071821;28;19928;-61
2022/05/06 07:32:04;;;;;;;;;;;12.50;99.90;;;;;;5071342;28;20331;-61
2022/05/06 07:34:30;;;;;;;;;;;12.50;99.90;;;;;;5071569;28;19994;-61
2022/05/06 07:36:55;;;;;;;;;;;12.50;99.90;;;;;;5071896;28;19970;-62
2022/05/06 07:39:21;;;;;;;;;;;12.50;99.90;;;;;;5072159;28;20019;-62
2022/05/06 07:41:46;;;;;;;;;;;12.40;99.90;;;;;;5072117;28;19920;-62
2022/05/06 07:44:12;;;;;;;;;;;12.50;99.90;;;;;;5054268;28;19920;-61
2022/05/06 07:46:37;;;;;;;;;;;12.60;99.90;;;;;;5073995;28;19920;-62
2022/05/06 07:49:04;;;;;;;;;;;12.60;99.90;;;;;;5075904;28;20294;-62
2022/05/06 07:51:29;;;;;;;;;;;12.60;99.90;;;;;;5075944;28;19924;-61
2022/05/06 07:53:55;;;;;;;;;;;12.70;99.90;;;;;;5076026;28;19927;-62
2022/05/06 07:56:21;;;;;;;;;;;12.80;99.90;;;;;;5075685;28;20346;-61
2022/05/06 07:58:47;;;;;;;;;;;13.00;99.90;;;;;;5057615;28;19933;-61
2022/05/06 08:01:13;;;;;;;;;;;13.10;99.90;;;;;;5075200;28;20033;-60
2022/05/06 08:06:23;;;;;;;;;;;13.20;99.90;;;;;;5075017;28;19921;-61
2022/05/06 08:08:48;;;;;;;;;;;13.30;99.90;;;;;;5075034;28;19974;-60
2022/05/06 08:11:14;;;;;;;;;;;13.30;99.90;;;;;;5074814;28;20367;-60
2022/05/06 08:13:39;;;;;;;;;;;13.50;99.90;;;;;;5074768;28;19920;-61
2022/05/06 08:16:05;;;;;;;;;;;13.50;99.90;;;;;;5074643;28;19921;-60
2022/05/06 08:18:30;;;;;;;;;;;13.60;99.90;;;;;;5074968;28;20321;-62
2022/05/06 08:20:56;;;;;;;;;;;13.70;99.90;;;;;;5075357;28;19920;-62
2022/05/06 08:23:22;;;;;;;;;;;13.90;99.90;;;;;;5075419;28;20016;-62
2022/05/06 08:25:49;;;;;;;;;;;14.00;99.90;;;;;;5075099;28;19928;-61
2022/05/06 08:28:15;;;;;;;;;;;14.00;99.90;;;;;;5074488;28;20020;-61
2022/05/06 08:30:41;;;;;;;;;;;14.00;99.90;;;;;;5074146;28;19929;-60
2022/05/06 08:33:06;;;;;;;;;;;14.10;99.90;;;;;;5074715;28;19920;-61
2022/05/06 08:35:32;;;;;;;;;;;14.20;99.90;;;;;;5074471;28;19982;-61
2022/05/06 08:37:58;;;;;;;;;;;14.30;99.90;;;;;;5074729;28;19928;-61
2022/05/06 08:40:29;;;;;;;;;;;14.30;99.90;;;;;;5074253;28;20011;-61
2022/05/06 08:42:55;;;;;;;;;;;14.40;99.90;;;;;;5074260;28;20413;-61
2022/05/06 08:50:50;;;;;;;;;;;15.00;99.90;;;;;;5074238;28;20011;-62
2022/05/06 08:53:16;;;;;;;;;;;15.20;99.90;;;;;;5074287;28;19921;-62
2022/05/06 08:55:42;;;;;;;;;;;15.30;99.90;;;;;;5073895;28;19924;-55
2022/05/06 08:58:08;;;;;;;;;;;15.50;99.90;;;;;;5073377;28;19924;-56
2022/05/06 09:00:33;;;;;;;;;;;16.10;99.90;;;;;;5074080;28;20015;-56
2022/05/06 09:02:59;;;;;;;;;;;16.60;99.90;;;;;;5073888;28;20007;-56
2022/05/06 09:05:24;;;;;;;;;;;17.50;99.90;;;;;;5073916;28;19921;-56
2022/05/06 09:07:57;;;;;;;;;;;17.40;99.90;;;;;;5074023;28;20302;-56
2022/05/06 09:10:22;;;;;;;;;;;17.80;99.90;;;;;;5073647;28;19925;-56
2022/05/06 09:12:51;;;;;;;;;;;17.80;99.90;;;;;;5074015;28;19925;-56
2022/05/06 09:18:02;;;;;;;;;;;18.90;99.90;;;;;;5074061;28;19959;-56
2022/05/06 09:20:28;;;;;;;;;;;19.60;99.90;;;;;;5073524;28;19927;-56
2022/05/06 09:22:54;;;;;;;;;;;20.00;99.90;;;;;;5073414;28;19966;-56
2022/05/06 09:25:35;;;;;;;;;;;20.60;99.90;;;;;;5073715;28;20397;-57
2022/05/06 09:28:00;;;;;;;;;;;21.10;99.90;;;;;;5073552;28;20463;-57
2022/05/06 09:30:26;;;;;;;;;;;21.70;99.90;;;;;;5073291;28;19928;-56
2022/05/06 09:32:51;;;;;;;;;;;22.00;99.90;;;;;;5073755;28;19920;-57
2022/05/06 09:35:18;;;;;;;;;;;22.70;99.90;;;;;;5073291;28;19974;-57
2022/05/06 09:37:48;;;;;;;;;;;22.60;99.90;;;;;;5089070;28;19920;-58
2022/05/06 09:40:14;;;;;;;;;;;23.00;99.90;;;;;;5093191;28;19928;-58
2022/05/06 09:42:59;;;;;;;;;;;22.90;99.90;;;;;;5091868;28;19932;-58
2022/05/06 09:45:29;;;;;;;;;;;22.50;99.90;;;;;;5092180;28;19927;-58
2022/05/06 09:47:59;;;;;;;;;;;22.10;99.90;;;;;;5091357;28;19942;-58
2022/05/06 09:50:34;;;;;;;;;;;21.90;99.90;;;;;;5092673;28;19924;-58
2022/05/06 09:53:03;;;;;;;;;;;22.40;99.90;;;;;;5092868;28;20025;-58
2022/05/06 09:55:29;;;;;;;;;;;22.40;99.90;;;;;;5090902;28;19920;-58
2022/05/06 09:57:59;;;;;;;;;;;21.90;99.90;;;;;;5092891;28;19927;-58
2022/05/06 10:00:27;;;;;;;;;;;22.00;99.90;;;;;;5092813;28;19963;-58
2022/05/06 10:02:54;;;;;;;;;;;21.60;99.90;;;;;;5092640;28;19920;-58
2022/05/06 10:05:20;;;;;;;;;;;22.20;99.90;;;;;;5092435;28;19969;-57
2022/05/06 10:07:46;;;;;;;;;;;21.90;99.90;;;;;;5093084;28;19924;-55
2022/05/06 10:10:22;;;;;;;;;;;21.70;99.90;;;;;;5092889;28;19932;-55
2022/05/06 10:12:52;;;;;;;;;;;21.70;99.90;;;;;;5089653;28;19928;-56
2022/05/06 10:15:19;;;;;;;;;;;21.70;99.90;;;;;;5092891;28;19931;-56
2022/05/06 10:17:51;;;;;;;;;;;22.00;99.90;;;;;;5092362;28;20020;-55
2022/05/06 10:20:35;;;;;;;;;;;21.60;99.90;;;;;;5092809;28;19920;-57
2022/05/06 10:23:07;;;;;;;;;;;21.60;99.90;;;;;;5073171;28;19968;-55
2022/05/06 10:25:46;;;;;;;;;;;22.00;99.90;;;;;;5092595;28;19943;-56
2022/05/06 10:34:17;;;;;;;;;;;22.40;99.90;;;;;;5092834;28;19924;-56
2022/05/06 10:36:46;;;;;;;;;;;22.40;99.90;;;;;;5092939;28;19920;-56
2022/05/06 10:39:26;;;;;;;;;;;22.40;99.90;;;;;;5092404;28;20338;-57
2022/05/06 10:42:10;;;;;;;;;;;22.40;99.90;;;;;;5072702;28;19994;-56
2022/05/06 10:44:36;;;;;;;;;;;22.20;99.90;;;;;;5091819;28;19920;-56
2022/05/06 10:47:03;;;;;;;;;;;22.30;99.90;;;;;;5074214;28;19927;-57
2022/05/06 10:49:34;;;;;;;;;;;22.50;99.90;;;;;;5092115;28;20358;-56
2022/05/06 10:52:19;;;;;;;;;;;23.10;99.90;;;;;;5092456;28;19924;-57
2022/05/06 10:54:48;;;;;;;;;;;22.90;99.90;;;;;;5092474;28;19924;-56
2022/05/06 10:57:14;;;;;;;;;;;22.50;99.90;;;;;;5088901;28;19927;-56
2022/05/06 11:00:06;;;;;;;;;;;22.40;99.90;;;;;;5092117;28;19927;-56
2022/05/06 11:02:36;;;;;;;;;;;22.70;99.90;;;;;;5084690;28;19920;-56
2022/05/06 11:05:05;;;;;;;;;;;23.00;99.90;;;;;;5092566;28;19927;-57
2022/05/06 11:07:32;;;;;;;;;;;23.10;99.90;;;;;;5093292;28;20267;-59
2022/05/06 11:09:58;;;;;;;;;;;23.80;99.90;;;;;;5093043;28;19942;-59
2022/05/06 11:12:27;;;;;;;;;;;23.80;99.90;;;;;;5093051;28;20426;-59
2022/05/06 11:14:59;;;;;;;;;;;23.40;99.40;;;;;;5093293;28;19973;-60
2022/05/06 11:17:24;;;;;;;;;;;23.60;99.90;;;;;;5092451;28;19923;-56
2022/05/06 11:19:50;;;;;;;;;;;23.80;99.50;;;;;;5091856;28;19923;-56
2022/05/06 11:22:16;;;;;;;;;;;24.00;99.10;;;;;;5094831;28;19920;-56
2022/05/06 11:24:43;;;;;;;;;;;23.70;98.70;;;;;;5096143;28;19927;-56
2022/05/06 11:27:12;;;;;;;;;;;23.70;98.40;;;;;;5096409;28;19920;-56
2022/05/06 11:29:56;;;;;;;;;;;24.40;98.70;;;;;;5095153;28;19942;-56
2022/05/06 11:32:23;;;;;;;;;;;25.00;98.80;;;;;;5094173;28;19924;-56
2022/05/06 11:34:55;;;;;;;;;;;24.10;98.90;;;;;;5095097;28;21181;-57
2022/05/06 11:37:25;;;;;;;;;;;24.20;98.50;;;;;;5093724;28;19930;-56
2022/05/06 11:39:51;;;;;;;;;;;24.70;99.30;;;;;;5095124;28;20327;-56
2022/05/06 11:42:21;;;;;;;;;;;24.40;98.20;;;;;;5095531;28;19973;-56
2022/05/06 11:47:40;;;;;;;;;;;24.20;99.30;;;;;;5095441;28;20717;-56
2022/05/06 11:50:06;;;;;;;;;;;24.10;99.00;;;;;;5095866;28;20025;-60
2022/05/06 11:52:32;;;;;;;;;;;24.10;99.20;;;;;;5096729;28;19920;-59
2022/05/06 11:54:58;;;;;;;;;;;24.20;99.60;;;;;;5096731;28;20332;-58
2022/05/06 11:57:24;;;;;;;;;;;24.70;98.30;;;;;;5096489;28;20335;-58
2022/05/06 11:59:49;;;;;;;;;;;24.90;97.80;;;;;;5077688;28;20325;-59
2022/05/06 12:02:15;;;;;;;;;;;24.60;97.70;;;;;;5096136;28;19924;-59
2022/05/06 12:04:40;;;;;;;;;;;24.60;98.50;;;;;;5096653;28;19924;-59
2022/05/06 12:07:06;;;;;;;;;;;24.60;98.60;;;;;;5096036;28;19965;-58
2022/05/06 12:09:40;;;;;;;;;;;24.90;98.40;;;;;;5096023;28;20010;-59
2022/05/06 12:12:10;;;;;;;;;;;24.30;99.00;;;;;;5095450;28;20366;-60
2022/05/06 12:14:36;;;;;;;;;;;24.50;98.50;;;;;;5096478;28;19920;-60
2022/05/06 12:17:03;;;;;;;;;;;23.90;98.50;;;;;;5096189;28;19928;-59
2022/05/06 12:19:32;;;;;;;;;;;23.90;99.10;;;;;;5094999;28;20002;-60
2022/05/06 12:22:07;;;;;;;;;;;23.90;99.40;;;;;;5095407;28;19973;-60
2022/05/06 12:24:39;;;;;;;;;;;24.00;99.30;;;;;;5094271;28;20366;-60
2022/05/06 12:27:06;;;;;;;;;;;24.50;98.90;;;;;;5093081;28;19965;-60
2022/05/06 12:29:36;;;;;;;;;;;24.40;99.40;;;;;;5095631;28;19920;-60
2022/05/06 12:32:03;;;;;;;;;;;23.70;99.10;;;;;;5094487;28;19985;-60
2022/05/06 12:34:29;;;;;;;;;;;24.10;98.20;;;;;;5094136;28;19924;-60
2022/05/06 12:37:07;;;;;;;;;;;23.70;99.10;;;;;;5094772;28;20484;-59
2022/05/06 12:39:38;;;;;;;;;;;23.40;99.70;;;;;;5095919;28;19920;-60
2022/05/06 12:42:11;;;;;;;;;;;23.40;99.90;;;;;;5095744;28;19927;-60
2022/05/06 12:44:37;;;;;;;;;;;23.60;99.90;;;;;;5093322;28;19920;-59
2022/05/06 12:50:00;;;;;;;;;;;24.30;98.70;;;;;;5093255;28;19924;-60
2022/05/06 12:52:25;;;;;;;;;;;24.50;99.40;;;;;;5095481;28;20288;-60
2022/05/06 12:54:51;;;;;;;;;;;24.50;99.80;;;;;;5095275;28;19920;-60
2022/05/06 12:57:17;;;;;;;;;;;24.50;99.80;;;;;;5096023;28;19927;-60
2022/05/06 12:59:43;;;;;;;;;;;25.00;99.50;;;;;;5094690;28;20042;-60
2022/05/06 13:02:09;;;;;;;;;;;24.80;99.70;;;;;;5095618;28;20451;-60
2022/05/06 13:04:36;;;;;;;;;;;24.50;99.50;;;;;;5095495;28;20117;-60
2022/05/06 13:07:02;;;;;;;;;;;24.20;99.90;;;;;;5095698;28;19920;-59
2022/05/06 13:09:27;;;;;;;;;;;23.70;99.90;;;;;;5095386;28;19927;-59
2022/05/06 13:11:53;;;;;;;;;;;23.50;99.90;;;;;;5076860;28;19928;-60
2022/05/06 13:14:21;;;;;;;;;;;23.80;99.90;;;;;;5095485;28;19978;-61
2022/05/06 13:16:47;;;;;;;;;;;24.30;99.90;;;;;;5077319;28;20324;-60
2022/05/06 13:19:13;;;;;;;;;;;24.00;99.20;;;;;;5094906;28;19920;-61
2022/05/06 13:21:38;;;;;;;;;;;24.20;99.50;;;;;;5094961;28;19973;-61
2022/05/06 13:24:04;;;;;;;;;;;24.00;99.60;;;;;;5095435;28;19927;-61
2022/05/06 13:26:30;;;;;;;;;;;23.80;99.40;;;;;;5095484;28;20275;-60
2022/05/06 13:28:55;;;;;;;;;;;23.50;99.50;;;;;;5095003;28;20389;-60
2022/05/06 13:31:21;;;;;;;;;;;23.40;99.90;;;;;;5094872;28;19946;-60
2022/05/06 13:33:47;;;;;;;;;;;23.20;99.90;;;;;;5095094;28;19920;-60
2022/05/06 13:36:14;;;;;;;;;;;23.10;99.90;;;;;;5095103;28;19920;-60
2022/05/06 13:38:39;;;;;;;;;;;22.90;99.90;;;;;;5094830;28;19927;-60
2022/05/06 13:41:06;;;;;;;;;;;22.90;99.90;;;;;;5094780;28;19924;-60
2022/05/06 13:43:31;;;;;;;;;;;22.80;99.90;;;;;;5094612;28;19920;-61
2022/05/06 13:45:57;;;;;;;;;;;22.80;99.90;;;;;;5094599;28;19981;-61
2022/05/06 13:48:22;;;;;;;;;;;22.70;99.90;;;;;;5094610;28;19973;-61
2022/05/06 13:50:48;;;;;;;;;;;22.70;99.90;;;;;;5094262;28;20289;-61
2022/05/06 13:53:13;;;;;;;;;;;22.60;99.90;;;;;;5094201;28;19920;-61
2022/05/06 14:01:08;;;;;;;;;;;22.80;99.90;;;;;;5093928;28;19932;-60
2022/05/06 14:03:33;;;;;;;;;;;23.30;99.90;;;;;;5093833;28;19941;-61
2022/05/06 14:05:59;;;;;;;;;;;23.00;99.70;;;;;;5093854;28;20010;-62
2022/05/06 14:08:24;;;;;;;;;;;22.80;99.90;;;;;;5093099;28;20385;-61
2022/05/06 14:10:50;;;;;;;;;;;22.70;99.90;;;;;;5093679;28;19955;-61
2022/05/06 14:13:15;;;;;;;;;;;22.60;99.90;;;;;;5093368;28;19920;-61
2022/05/06 14:15:42;;;;;;;;;;;22.40;99.90;;;;;;5093383;28;19927;-61
2022/05/06 14:18:07;;;;;;;;;;;22.20;99.90;;;;;;5093833;28;19927;-61
2022/05/06 14:20:33;;;;;;;;;;;22.10;99.90;;;;;;5093259;28;20282;-61
2022/05/06 14:22:58;;;;;;;;;;;21.90;99.90;;;;;;5093633;28;19920;-61
2022/05/06 14:25:24;;;;;;;;;;;21.80;99.90;;;;;;5075594;28;19926;-61
2022/05/06 14:27:49;;;;;;;;;;;21.60;99.90;;;;;;5093790;28;19974;-61
2022/05/06 14:30:15;;;;;;;;;;;21.40;99.90;;;;;;5093476;28;20015;-60
2022/05/06 14:32:41;;;;;;;;;;;21.50;99.90;;;;;;5058969;28;19975;-61
2022/05/06 14:35:16;;;;;;;;;;;21.50;99.90;;;;;;5093281;28;19920;-60
2022/05/06 14:37:53;;;;;;;;;;;21.40;99.90;;;;;;5075462;28;19959;-59
2022/05/06 14:40:19;;;;;;;;;;;21.40;99.90;;;;;;5075711;28;19927;-60
2022/05/06 14:42:45;;;;;;;;;;;21.30;99.90;;;;;;5093359;28;19924;-61
2022/05/06 14:45:12;;;;;;;;;;;21.40;99.90;;;;;;5093582;28;19984;-61
2022/05/06 14:47:38;;;;;;;;;;;21.60;99.90;;;;;;5093282;28;19920;-60
2022/05/06 14:50:05;;;;;;;;;;;21.90;99.90;;;;;;5093462;28;19920;-61
2022/05/06 14:52:30;;;;;;;;;;;22.10;99.90;;;;;;5093235;28;19935;-60
2022/05/06 14:54:56;;;;;;;;;;;22.60;99.90;;;;;;5092873;28;19924;-60
2022/05/06 14:57:22;;;;;;;;;;;22.40;99.90;;;;;;5092669;28;19924;-60
2022/05/06 14:59:48;;;;;;;;;;;22.30;99.90;;;;;;5093342;28;20369;-60
2022/05/06 15:02:13;;;;;;;;;;;22.00;99.90;;;;;;5074947;28;20285;-60
2022/05/06 15:04:40;;;;;;;;;;;21.90;99.90;;;;;;5074555;28;19924;-59
2022/05/06 15:07:05;;;;;;;;;;;21.90;99.90;;;;;;5093137;28;19929;-60
2022/05/06 15:09:31;;;;;;;;;;;21.80;99.90;;;;;;5093107;28;20382;-60